Time;durP1;ratioP1;P1;durP2;ratioP2;P2;SDS_P1;SDS_P2;PMS_P1;PMS_P2;Temp;Humidity;BMP_temperature;BMP_pressure;BME280_temperature;BME280_humidity;BME280_pressure;Samples;Min_cycle;Max_cycle;Signal;HPM_P1;HPM_P2
2023/07/14 00:00:41;;;;;;;1999.90;999.90;;;16.40;99.90;;;;;;6730382;88;20201;-76
2023/07/14 00:10:42;;;;;;;1999.90;999.90;;;16.40;99.90;;;;;;6731103;88;20625;-76
2023/07/14 00:20:42;;;;;;;1999.90;999.90;;;16.50;99.90;;;;;;6733461;87;20185;-76
2023/07/14 00:30:43;;;;;;;1999.90;999.90;;;16.50;99.90;;;;;;6736104;88;20221;-76
2023/07/14 00:40:46;;;;;;;1999.90;999.90;;;16.60;99.90;;;;;;6732606;88;20538;-77
2023/07/14 00:51:10;;;;;;;1999.90;999.90;;;16.50;99.90;;;;;;6734207;87;20209;-76
2023/07/14 01:01:21;;;;;;;1999.90;999.90;;;16.40;99.90;;;;;;6737420;87;20691;-77
2023/07/14 01:11:31;;;;;;;1999.90;999.90;;;16.50;99.90;;;;;;6731420;88;20185;-76
2023/07/14 01:21:33;;;;;;;1999.90;999.90;;;16.50;99.90;;;;;;6735225;88;20283;-76
2023/07/14 01:31:35;;;;;;;1999.90;999.90;;;16.50;99.90;;;;;;6734538;88;20283;-76
2023/07/14 01:41:36;;;;;;;1999.90;999.90;;;16.50;99.90;;;;;;6735955;88;20414;-76
2023/07/14 01:51:42;;;;;;;1999.90;999.90;;;16.50;99.90;;;;;;6731411;88;20188;-77
2023/07/14 02:01:44;;;;;;;1999.90;999.90;;;16.40;99.90;;;;;;6734507;88;20240;-76
2023/07/14 02:11:57;;;;;;;1999.90;999.90;;;16.30;99.90;;;;;;6731018;88;20254;-76
2023/07/14 02:21:58;;;;;;;1999.90;999.90;;;16.20;99.90;;;;;;6729835;88;20190;-76
2023/07/14 02:32:13;;;;;;;1999.90;999.90;;;16.00;99.90;;;;;;6735168;88;20685;-77
2023/07/14 02:42:14;;;;;;;1999.90;999.90;;;15.80;99.90;;;;;;6737485;88;20225;-77
2023/07/14 02:52:15;;;;;;;1999.90;999.90;;;15.70;99.90;;;;;;6735043;88;20194;-75
2023/07/14 03:02:16;;;;;;;1999.90;999.90;;;15.70;99.90;;;;;;6736731;88;20254;-77
2023/07/14 03:12:18;;;;;;;1999.90;999.90;;;15.70;99.90;;;;;;6741612;88;20192;-76
2023/07/14 03:22:18;;;;;;;1999.90;999.90;;;15.60;99.90;;;;;;6736756;88;20184;-77
2023/07/14 03:32:19;;;;;;;1999.90;999.90;;;15.60;99.90;;;;;;6740268;88;20206;-77
2023/07/14 03:42:20;;;;;;;1999.90;999.90;;;15.50;99.90;;;;;;6737869;88;20871;-77
2023/07/14 03:52:20;;;;;;;1999.90;999.90;;;15.50;99.90;;;;;;6734780;88;21060;-75
2023/07/14 04:02:21;;;;;;;1999.90;999.90;;;15.40;99.90;;;;;;6742966;88;20265;-76
2023/07/14 04:12:21;;;;;;;1999.90;999.90;;;15.30;99.90;;;;;;6743117;88;20688;-77
2023/07/14 04:22:22;;;;;;;1999.90;999.90;;;15.40;99.90;;;;;;6741366;87;20212;-77
2023/07/14 04:32:23;;;;;;;1999.90;999.90;;;15.40;99.90;;;;;;6739454;88;20705;-77
2023/07/14 04:42:23;;;;;;;1999.90;999.90;;;15.40;99.90;;;;;;6738118;88;20231;-76
2023/07/14 04:52:24;;;;;;;1999.90;999.90;;;15.50;99.90;;;;;;6741405;88;20217;-77
2023/07/14 05:02:24;;;;;;;1999.90;999.90;;;15.70;99.90;;;;;;6741344;87;20291;-78
2023/07/14 05:12:49;;;;;;;1999.90;999.90;;;15.80;99.90;;;;;;6757919;77;20548;-78
2023/07/14 05:22:52;;;;;;;1999.90;999.90;;;16.00;99.90;;;;;;6744605;88;20291;-80
2023/07/14 05:32:53;;;;;;;1999.90;999.90;;;16.30;99.90;;;;;;6740296;88;20179;-77
2023/07/14 05:42:54;;;;;;;1999.90;999.90;;;16.70;99.90;;;;;;6740416;88;20201;-78
2023/07/14 05:52:55;;;;;;;1999.90;999.90;;;16.90;99.90;;;;;;6740764;88;20191;-80
2023/07/14 06:02:55;;;;;;;1999.90;999.90;;;17.00;99.90;;;;;;6738111;88;20217;-79
2023/07/14 06:12:56;;;;;;;1999.90;999.90;;;17.40;99.90;;;;;;6738743;88;20263;-79
2023/07/14 06:22:56;;;;;;;1999.90;999.90;;;18.00;99.90;;;;;;6742338;88;20200;-79
2023/07/14 06:32:57;;;;;;;1999.90;999.90;;;18.60;99.90;;;;;;6748019;88;20232;-78
2023/07/14 06:43:00;;;;;;;1999.90;999.90;;;18.80;99.90;;;;;;6737346;88;20207;-78
2023/07/14 06:53:01;;;;;;;1999.90;999.90;;;19.40;99.90;;;;;;6737917;88;20215;-79
2023/07/14 07:03:03;;;;;;;1999.90;999.90;;;19.80;99.90;;;;;;6746779;88;20194;-82
2023/07/14 07:13:04;;;;;;;1999.90;999.90;;;20.40;99.90;;;;;;6745915;88;20208;-80
2023/07/14 07:23:05;;;;;;;1999.90;999.90;;;20.70;99.90;;;;;;6743869;88;20206;-80
2023/07/14 07:33:05;;;;;;;1999.90;999.90;;;20.70;99.90;;;;;;6752396;88;20185;-81
2023/07/14 07:43:06;;;;;;;1999.90;999.90;;;20.70;99.90;;;;;;6753703;88;20208;-79
2023/07/14 07:53:07;;;;;;;1999.90;999.90;;;21.30;99.90;;;;;;6757207;88;21671;-81
2023/07/14 08:03:07;;;;;;;1999.90;999.90;;;21.90;99.90;;;;;;6737052;88;20236;-81
2023/07/14 08:13:09;;;;;;;1999.90;999.90;;;;;;;;;;6744692;88;20804;-84
2023/07/14 08:23:13;;;;;;;1999.90;999.90;;;;;;;;;;6742028;88;20186;-83
2023/07/14 08:33:14;;;;;;;1999.90;999.90;;;;;;;;;;6742474;88;20185;-82
2023/07/14 08:43:21;;;;;;;1999.90;999.90;;;;;;;;;;6763188;88;20200;-88
2023/07/14 08:53:25;;;;;;;1999.90;999.90;;;;;;;;;;6761662;88;20181;-82
2023/07/14 09:03:37;;;;;;;1999.90;999.90;;;;;;;;;;6751118;88;20213;-78
2023/07/14 09:13:47;;;;;;;1999.90;999.90;;;;;;;;;;6767091;88;20239;-83
2023/07/14 09:24:11;;;;;;;1999.90;999.90;;;;;;;;;;6759574;87;20363;-80
2023/07/14 09:34:22;;;;;;;1999.90;999.90;;;;;;;;;;6734053;88;20189;-79
2023/07/14 09:44:24;;;;;;;1999.90;999.90;;;;;;;;;;6726775;88;20205;-79
2023/07/14 09:54:25;;;;;;;1999.90;999.90;;;;;;;;;;6729746;88;20199;-78
2023/07/14 10:04:30;;;;;;;1999.90;999.90;;;;;;;;;;6723381;88;20200;-80
2023/07/14 10:14:35;;;;;;;1999.90;999.90;;;;;;;;;;6727576;88;22374;-78
2023/07/14 10:24:37;;;;;;;1999.90;999.90;;;;;;;;;;6739928;88;20188;-78
2023/07/14 10:34:49;;;;;;;1999.90;999.90;;;;;;;;;;6744954;88;20241;-79
2023/07/14 10:44:50;;;;;;;1999.90;999.90;;;;;;;;;;6753823;88;20326;-79
2023/07/14 10:54:54;;;;;;;1999.90;999.90;;;;;;;;;;6750710;88;20669;-80
2023/07/14 11:05:15;;;;;;;1999.90;999.90;;;;;;;;;;6746874;88;20196;-81
2023/07/14 11:21:01;;;;;;;1999.90;999.90;;;;;;;;;;6787014;87;20998;-78
2023/07/14 11:31:03;;;;;;;1999.90;999.90;;;;;;;;;;6784447;87;20301;-85
2023/07/14 11:41:05;;;;;;;1999.90;999.90;;;;;;;;;;6787570;87;20188;-80
2023/07/14 11:51:14;;;;;;;1999.90;999.90;;;;;;;;;;6771795;87;20173;-79
2023/07/14 12:01:18;;;;;;;1999.90;999.90;;;;;;;;;;6776010;87;20190;-81
2023/07/14 12:11:29;;;;;;;1999.90;999.90;;;;;;;;;;6764746;88;20339;-80
2023/07/14 12:21:33;;;;;;;1999.90;999.90;;;;;;;;;;6783251;87;20193;-81
2023/07/14 12:31:36;;;;;;;1999.90;999.90;;;;;;;;;;6777676;88;20244;-81
2023/07/14 12:52:01;;;;;;;1999.90;999.90;;;;;;;;;;6772026;77;20201;-82
2023/07/14 13:02:02;;;;;;;1999.90;999.90;;;;;;;;;;6742530;88;20195;-80
2023/07/14 13:12:03;;;;;;;1999.90;999.90;;;;;;;;;;6745020;88;20175;-82
2023/07/14 13:22:05;;;;;;;1999.90;999.90;;;;;;;;;;6733084;88;20806;-84
2023/07/14 13:32:14;;;;;;;1999.90;999.90;;;;;;;;;;6738814;88;20166;-81
2023/07/14 13:42:33;;;;;;;1999.90;999.90;;;;;;;;;;6728618;88;20238;-80
2023/07/14 13:52:35;;;;;;;1999.90;999.90;;;;;;;;;;6725910;88;20194;-80
2023/07/14 14:02:36;;;;;;;1999.90;999.90;;;;;;;;;;6741486;88;22104;-80
2023/07/14 14:12:37;;;;;;;1999.90;999.90;;;;;;;;;;6741352;88;20218;-82
2023/07/14 14:22:38;;;;;;;1999.90;999.90;;;;;;;;;;6746080;88;20286;-85
2023/07/14 14:32:39;;;;;;;1999.90;999.90;;;;;;;;;;6748240;88;20213;-81
2023/07/14 14:42:40;;;;;;;1999.90;999.90;;;;;;;;;;6741922;88;20201;-80
2023/07/14 14:52:44;;;;;;;1999.90;999.90;;;;;;;;;;6723513;88;20730;-80
2023/07/14 15:02:46;;;;;;;1999.90;999.90;;;;;;;;;;6717407;88;20221;-79
2023/07/14 15:12:47;;;;;;;;;;;;;;;;;;6716721;88;20370;-80
2023/07/14 15:22:48;;;;;;;1999.90;999.90;;;;;;;;;;6718375;88;20084;-80
2023/07/14 15:32:49;;;;;;;1999.90;999.90;;;;;;;;;;6738896;88;20302;-83
2023/07/14 15:42:50;;;;;;;1999.90;999.90;;;;;;;;;;6731433;88;20206;-78
2023/07/14 15:52:53;;;;;;;1999.90;999.90;;;;;;;;;;6726888;88;20654;-79
2023/07/14 16:02:54;;;;;;;1999.90;999.90;;;;;;;;;;6728408;88;20213;-81
2023/07/14 16:12:54;;;;;;;1999.90;999.90;;;;;;;;;;6728491;88;20194;-82
2023/07/14 16:22:57;;;;;;;1999.90;999.90;;;;;;;;;;6725115;88;20222;-82
2023/07/14 16:32:58;;;;;;;1999.90;999.90;;;;;;;;;;6726928;88;20210;-82
2023/07/14 16:43:00;;;;;;;1999.90;999.90;;;;;;;;;;6739368;88;20738;-81
2023/07/14 16:53:01;;;;;;;1999.90;999.90;;;;;;;;;;6726045;88;20189;-80
2023/07/14 17:03:15;;;;;;;1999.90;999.90;;;;;;;;;;6743690;88;20288;-83
2023/07/14 17:13:17;;;;;;;1999.90;999.90;;;;;;;;;;6746131;88;20251;-82
2023/07/14 17:23:22;;;;;;;1999.90;999.90;;;;;;;;;;6731717;88;20315;-80
2023/07/14 17:33:26;;;;;;;1999.90;999.90;;;;;;;;;;6747825;88;20763;-82
2023/07/14 17:43:27;;;;;;;1999.90;999.90;;;;;;;;;;6736335;88;20179;-84
2023/07/14 17:53:32;;;;;;;1999.90;999.90;;;;;;;;;;6730583;88;20211;-81
2023/07/14 18:03:34;;;;;;;1999.90;999.90;;;;;;;;;;6729121;88;20211;-83
2023/07/14 18:13:37;;;;;;;1999.90;999.90;;;;;;;;;;6730029;88;20354;-84
2023/07/14 18:23:38;;;;;;;1999.90;999.90;;;;;;;;;;6730218;88;20653;-81
2023/07/14 18:33:41;;;;;;;1999.90;999.90;;;;;;;;;;6722989;88;20233;-82
2023/07/14 18:43:42;;;;;;;1999.90;999.90;;;;;;;;;;6720755;88;20772;-81
2023/07/14 18:53:46;;;;;;;1999.90;999.90;;;;;;;;;;6721789;77;20209;-76
2023/07/14 19:03:48;;;;;;;1999.90;999.90;;;;;;;;;;6699573;88;20668;-77
2023/07/14 19:13:50;;;;;;;1999.90;999.90;;;;;;;;;;6688347;88;20249;-77
2023/07/14 19:23:51;;;;;;;1999.90;999.90;;;;;;;;;;6680291;88;20342;-77
2023/07/14 19:33:54;;;;;;;1999.90;999.90;;;;;;;;;;6676953;88;20650;-77
2023/07/14 19:43:55;;;;;;;1999.90;999.90;;;;;;;;;;6684156;88;20295;-77
2023/07/14 19:53:59;;;;;;;1999.90;999.90;;;;;;;;;;6685963;88;20880;-77
2023/07/14 20:04:00;;;;;;;1999.90;999.90;;;;;;;;;;6686130;88;20215;-77
2023/07/14 20:14:02;;;;;;;1999.90;999.90;;;;;;;;;;6684167;88;20183;-76
2023/07/14 20:24:23;;;;;;;1999.90;999.90;;;;;;;;;;6679791;88;20215;-76
2023/07/14 20:34:24;;;;;;;1999.90;999.90;;;;;;;;;;6679871;88;20205;-76
2023/07/14 20:44:25;;;;;;;1999.90;999.90;;;;;;;;;;6679517;88;20299;-77
2023/07/14 20:54:27;;;;;;;1999.90;999.90;;;;;;;;;;6686872;88;20623;-77
2023/07/14 21:04:28;;;;;;;1999.90;999.90;;;;;;;;;;6681996;88;20682;-77
2023/07/14 21:14:29;;;;;;;1999.90;999.90;;;;;;;;;;6685074;88;20214;-77
2023/07/14 21:24:30;;;;;;;1999.90;999.90;;;;;;;;;;6682661;88;20227;-78
2023/07/14 21:34:33;;;;;;;1999.90;999.90;;;;;;;;;;6689914;88;20212;-78
2023/07/14 21:44:34;;;;;;;1999.90;999.90;;;;;;;;;;6680779;88;20192;-77
2023/07/14 21:54:35;;;;;;;1999.90;999.90;;;;;;;;;;6692266;88;20240;-77
2023/07/14 22:04:37;;;;;;;1999.90;999.90;;;;;;;;;;6684231;88;20195;-77
2023/07/14 22:14:38;;;;;;;1999.90;999.90;;;;;;;;;;6684103;88;20303;-77
2023/07/14 22:24:39;;;;;;;1999.90;999.90;;;;;;;;;;6686054;88;20263;-77
2023/07/14 22:34:41;;;;;;;1999.90;999.90;;;;;;;;;;6688933;88;20206;-77
2023/07/14 22:44:42;;;;;;;1999.90;999.90;;;;;;;;;;6670539;88;20216;-77
2023/07/14 22:54:43;;;;;;;1999.90;999.90;;;;;;;;;;6687841;88;20194;-77
2023/07/14 23:04:44;;;;;;;1999.90;999.90;;;;;;;;;;6686237;88;20225;-77
2023/07/14 23:14:45;;;;;;;1999.90;999.90;;;;;;;;;;6683426;88;20326;-78
2023/07/14 23:24:46;;;;;;;1999.90;999.90;;;;;;;;;;6698363;88;20184;-78
2023/07/14 23:34:47;;;;;;;1999.90;999.90;;;;;;;;;;6683514;88;20278;-78
2023/07/14 23:44:47;;;;;;;1999.90;999.90;;;;;;;;;;6678515;88;20212;-76
2023/07/14 23:54:49;;;;;;;1999.90;999.90;;;;;;;;;;6679655;88;20223;-76
